sensor_id;sensor_type;location;lat;lon;timestamp;temperature;humidity
17968;DHT22;9109;48.050;11.696;2023-04-03T03:46:47;3.60;99.90
17968;DHT22;9109;48.050;11.696;2023-04-03T03:49:48;3.50;99.90
17968;DHT22;9109;48.050;11.696;2023-04-03T03:52:50;3.60;99.90
17968;DHT22;9109;48.050;11.696;2023-04-03T03:55:52;3.60;99.90
17968;DHT22;9109;48.050;11.696;2023-04-03T03:58:54;3.70;99.90
17968;DHT22;9109;48.050;11.696;2023-04-03T04:01:58;3.80;99.90
17968;DHT22;9109;48.050;11.696;2023-04-03T04:05:00;3.60;99.90
17968;DHT22;9109;48.050;11.696;2023-04-03T04:08:02;3.50;99.90
17968;DHT22;9109;48.050;11.696;2023-04-03T04:11:03;3.40;99.90
17968;DHT22;9109;48.050;11.696;2023-04-03T04:14:06;3.40;99.90
17968;DHT22;9109;48.050;11.696;2023-04-03T04:17:09;3.30;99.90
17968;DHT22;9109;48.050;11.696;2023-04-03T04:20:11;3.40;99.90
17968;DHT22;9109;48.050;11.696;2023-04-03T04:23:13;3.50;99.90
17968;DHT22;9109;48.050;11.696;2023-04-03T04:26:15;3.40;99.90
17968;DHT22;9109;48.050;11.696;2023-04-03T04:29:17;3.40;99.90
17968;DHT22;9109;48.050;11.696;2023-04-03T04:32:20;3.40;99.90
17968;DHT22;9109;48.050;11.696;2023-04-03T04:35:22;3.30;99.90
17968;DHT22;9109;48.050;11.696;2023-04-03T04:38:25;3.40;99.90
17968;DHT22;9109;48.050;11.696;2023-04-03T04:41:26;3.30;99.90
17968;DHT22;9109;48.050;11.696;2023-04-03T04:44:28;3.40;99.90
17968;DHT22;9109;48.050;11.696;2023-04-03T04:47:32;3.40;99.90
17968;DHT22;9109;48.050;11.696;2023-04-03T04:50:33;3.40;99.90
17968;DHT22;9109;48.050;11.696;2023-04-03T04:53:35;3.20;99.90
17968;DHT22;9109;48.050;11.696;2023-04-03T04:56:37;3.30;99.90
17968;DHT22;9109;48.050;11.696;2023-04-03T04:59:39;3.40;99.90
17968;DHT22;9109;48.050;11.696;2023-04-03T05:02:43;3.40;99.90
17968;DHT22;9109;48.050;11.696;2023-04-03T05:05:45;3.30;99.90
17968;DHT22;9109;48.050;11.696;2023-04-03T05:08:46;3.20;99.90
17968;DHT22;9109;48.050;11.696;2023-04-03T05:11:48;3.20;99.90
17968;DHT22;9109;48.050;11.696;2023-04-03T05:14:50;3.00;99.90
17968;DHT22;9109;48.050;11.696;2023-04-03T05:17:54;3.10;99.90
17968;DHT22;9109;48.050;11.696;2023-04-03T05:20:56;2.90;99.90
17968;DHT22;9109;48.050;11.696;2023-04-03T05:23:58;2.80;99.90
17968;DHT22;9109;48.050;11.696;2023-04-03T05:27:03;3.00;99.90
17968;DHT22;9109;48.050;11.696;2023-04-03T05:30:06;2.90;99.90
17968;DHT22;9109;48.050;11.696;2023-04-03T05:33:09;3.00;99.90
17968;DHT22;9109;48.050;11.696;2023-04-03T05:36:11;3.10;99.90
17968;DHT22;9109;48.050;11.696;2023-04-03T05:39:13;3.20;99.90
17968;DHT22;9109;48.050;11.696;2023-04-03T05:42:17;3.10;99.90
17968;DHT22;9109;48.050;11.696;2023-04-03T05:45:19;3.00;99.90
17968;DHT22;9109;48.050;11.696;2023-04-03T05:48:22;3.10;99.90
17968;DHT22;9109;48.050;11.696;2023-04-03T05:51:28;3.20;99.90
17968;DHT22;9109;48.050;11.696;2023-04-03T05:54:30;3.20;99.90
17968;DHT22;9109;48.050;11.696;2023-04-03T05:57:32;3.20;99.90
17968;DHT22;9109;48.050;11.696;2023-04-03T06:00:34;3.20;99.90
17968;DHT22;9109;48.050;11.696;2023-04-03T06:03:37;3.30;99.90
17968;DHT22;9109;48.050;11.696;2023-04-03T06:06:45;3.30;99.90
17968;DHT22;9109;48.050;11.696;2023-04-03T06:09:47;3.30;99.90
17968;DHT22;9109;48.050;11.696;2023-04-03T06:12:49;3.30;99.90
17968;DHT22;9109;48.050;11.696;2023-04-03T06:15:51;3.30;99.90
17968;DHT22;9109;48.050;11.696;2023-04-03T06:18:54;3.30;99.90
17968;DHT22;9109;48.050;11.696;2023-04-03T06:21:56;3.20;99.90
17968;DHT22;9109;48.050;11.696;2023-04-03T06:24:58;3.20;99.90
17968;DHT22;9109;48.050;11.696;2023-04-03T06:28:00;3.20;99.90
17968;DHT22;9109;48.050;11.696;2023-04-03T06:31:02;3.30;99.90
17968;DHT22;9109;48.050;11.696;2023-04-03T06:34:05;3.20;99.90
17968;DHT22;9109;48.050;11.696;2023-04-03T06:37:10;3.20;99.90
17968;DHT22;9109;48.050;11.696;2023-04-03T06:40:16;3.30;99.90
17968;DHT22;9109;48.050;11.696;2023-04-03T06:43:20;3.40;99.90
17968;DHT22;9109;48.050;11.696;2023-04-03T06:46:22;3.50;99.90
17968;DHT22;9109;48.050;11.696;2023-04-03T06:49:25;3.50;99.90
17968;DHT22;9109;48.050;11.696;2023-04-03T06:52:28;3.50;99.90
17968;DHT22;9109;48.050;11.696;2023-04-03T06:55:30;3.30;99.90
17968;DHT22;9109;48.050;11.696;2023-04-03T06:58:32;3.30;99.90
17968;DHT22;9109;48.050;11.696;2023-04-03T07:01:34;3.40;99.90
17968;DHT22;9109;48.050;11.696;2023-04-03T07:04:37;3.50;99.90
17968;DHT22;9109;48.050;11.696;2023-04-03T07:07:39;3.60;99.90
17968;DHT22;9109;48.050;11.696;2023-04-03T07:10:41;3.60;99.90
17968;DHT22;9109;48.050;11.696;2023-04-03T07:13:43;3.60;99.90
17968;DHT22;9109;48.050;11.696;2023-04-03T07:16:45;3.60;99.90
17968;DHT22;9109;48.050;11.696;2023-04-03T07:19:48;3.50;99.90
17968;DHT22;9109;48.050;11.696;2023-04-03T07:22:50;3.40;99.90
17968;DHT22;9109;48.050;11.696;2023-04-03T07:25:52;3.50;99.90
17968;DHT22;9109;48.050;11.696;2023-04-03T07:28:54;3.40;99.90
17968;DHT22;9109;48.050;11.696;2023-04-03T07:31:56;3.60;99.90
17968;DHT22;9109;48.050;11.696;2023-04-03T07:35:00;3.60;99.90
17968;DHT22;9109;48.050;11.696;2023-04-03T07:38:02;3.70;99.90
17968;DHT22;9109;48.050;11.696;2023-04-03T07:41:04;3.70;99.90
17968;DHT22;9109;48.050;11.696;2023-04-03T07:44:06;3.70;99.90
17968;DHT22;9109;48.050;11.696;2023-04-03T07:47:10;3.80;99.90
17968;DHT22;9109;48.050;11.696;2023-04-03T07:50:13;3.90;99.90
17968;DHT22;9109;48.050;11.696;2023-04-03T07:53:15;3.80;99.90
17968;DHT22;9109;48.050;11.696;2023-04-03T07:56:17;3.70;99.90
17968;DHT22;9109;48.050;11.696;2023-04-03T07:59:19;3.70;99.90
17968;DHT22;9109;48.050;11.696;2023-04-03T08:02:21;3.80;99.90
17968;DHT22;9109;48.050;11.696;2023-04-03T08:05:24;3.80;99.90
17968;DHT22;9109;48.050;11.696;2023-04-03T08:08:30;3.90;99.90
17968;DHT22;9109;48.050;11.696;2023-04-03T08:11:33;4.10;99.90
17968;DHT22;9109;48.050;11.696;2023-04-03T08:14:37;4.00;99.90
17968;DHT22;9109;48.050;11.696;2023-04-03T08:17:39;4.00;99.90
17968;DHT22;9109;48.050;11.696;2023-04-03T08:20:42;4.00;99.90
17968;DHT22;9109;48.050;11.696;2023-04-03T08:23:48;4.10;99.90
17968;DHT22;9109;48.050;11.696;2023-04-03T08:26:51;4.10;99.90
17968;DHT22;9109;48.050;11.696;2023-04-03T08:29:53;4.20;99.90
17968;DHT22;9109;48.050;11.696;2023-04-03T08:32:55;4.10;99.90
17968;DHT22;9109;48.050;11.696;2023-04-03T08:35:58;4.10;99.90
17968;DHT22;9109;48.050;11.696;2023-04-03T08:39:00;4.10;99.90
17968;DHT22;9109;48.050;11.696;2023-04-03T08:42:05;4.20;99.90
17968;DHT22;9109;48.050;11.696;2023-04-03T08:45:15;4.00;99.90
17968;DHT22;9109;48.050;11.696;2023-04-03T08:48:20;4.10;99.90
17968;DHT22;9109;48.050;11.696;2023-04-03T08:51:26;4.10;99.90
17968;DHT22;9109;48.050;11.696;2023-04-03T08:54:32;4.20;99.90
17968;DHT22;9109;48.050;11.696;2023-04-03T08:57:37;4.10;99.90
17968;DHT22;9109;48.050;11.696;2023-04-03T09:00:44;4.30;99.90
17968;DHT22;9109;48.050;11.696;2023-04-03T09:03:47;4.30;99.90
17968;DHT22;9109;48.050;11.696;2023-04-03T09:06:54;4.40;99.90
17968;DHT22;9109;48.050;11.696;2023-04-03T09:09:57;4.40;99.90
17968;DHT22;9109;48.050;11.696;2023-04-03T09:13:05;4.50;99.90
17968;DHT22;9109;48.050;11.696;2023-04-03T09:16:20;4.50;99.90
17968;DHT22;9109;48.050;11.696;2023-04-03T09:19:35;4.40;99.90
17968;DHT22;9109;48.050;11.696;2023-04-03T09:22:43;4.50;99.90
17968;DHT22;9109;48.050;11.696;2023-04-03T09:25:45;4.50;99.90
17968;DHT22;9109;48.050;11.696;2023-04-03T09:28:49;4.60;99.90
17968;DHT22;9109;48.050;11.696;2023-04-03T09:31:55;4.70;99.90
17968;DHT22;9109;48.050;11.696;2023-04-03T09:35:01;4.70;99.90
17968;DHT22;9109;48.050;11.696;2023-04-03T09:38:20;4.80;99.90
17968;DHT22;9109;48.050;11.696;2023-04-03T09:41:22;4.90;99.90
17968;DHT22;9109;48.050;11.696;2023-04-03T09:44:26;5.10;99.90
17968;DHT22;9109;48.050;11.696;2023-04-03T09:47:30;5.10;99.90
17968;DHT22;9109;48.050;11.696;2023-04-03T09:50:34;4.90;99.90
17968;DHT22;9109;48.050;11.696;2023-04-03T09:53:40;4.80;99.90
17968;DHT22;9109;48.050;11.696;2023-04-03T09:56:49;4.70;99.90
17968;DHT22;9109;48.050;11.696;2023-04-03T09:59:57;4.40;99.90
17968;DHT22;9109;48.050;11.696;2023-04-03T10:03:01;4.40;99.90
17968;DHT22;9109;48.050;11.696;2023-04-03T10:06:21;4.40;99.90
17968;DHT22;9109;48.050;11.696;2023-04-03T10:09:26;4.30;99.90
17968;DHT22;9109;48.050;11.696;2023-04-03T10:12:29;4.30;99.90
17968;DHT22;9109;48.050;11.696;2023-04-03T10:15:35;4.30;99.90
17968;DHT22;9109;48.050;11.696;2023-04-03T10:18:42;4.40;99.90
17968;DHT22;9109;48.050;11.696;2023-04-03T10:21:50;4.60;99.90
17968;DHT22;9109;48.050;11.696;2023-04-03T10:25:03;4.70;99.90
17968;DHT22;9109;48.050;11.696;2023-04-03T10:28:09;4.70;99.90
17968;DHT22;9109;48.050;11.696;2023-04-03T10:31:17;5.00;99.90
17968;DHT22;9109;48.050;11.696;2023-04-03T10:34:24;5.00;99.90
17968;DHT22;9109;48.050;11.696;2023-04-03T10:37:34;5.00;99.90
17968;DHT22;9109;48.050;11.696;2023-04-03T10:40:44;5.00;99.90
17968;DHT22;9109;48.050;11.696;2023-04-03T10:43:56;5.20;99.90
17968;DHT22;9109;48.050;11.696;2023-04-03T10:47:04;5.30;99.90
17968;DHT22;9109;48.050;11.696;2023-04-03T10:50:26;5.10;99.90
17968;DHT22;9109;48.050;11.696;2023-04-03T10:53:35;5.00;99.90
17968;DHT22;9109;48.050;11.696;2023-04-03T10:56:44;5.10;99.90
17968;DHT22;9109;48.050;11.696;2023-04-03T10:59:50;5.00;99.90
17968;DHT22;9109;48.050;11.696;2023-04-03T11:02:57;4.70;99.90
17968;DHT22;9109;48.050;11.696;2023-04-03T11:06:07;4.00;99.90
17968;DHT22;9109;48.050;11.696;2023-04-03T11:09:19;3.50;99.90
17968;DHT22;9109;48.050;11.696;2023-04-03T11:12:27;3.40;99.90
17968;DHT22;9109;48.050;11.696;2023-04-03T11:15:32;3.50;99.90
17968;DHT22;9109;48.050;11.696;2023-04-03T11:18:37;3.30;99.90
17968;DHT22;9109;48.050;11.696;2023-04-03T11:21:45;3.50;99.90
17968;DHT22;9109;48.050;11.696;2023-04-03T11:24:56;3.60;99.90
17968;DHT22;9109;48.050;11.696;2023-04-03T11:28:04;3.60;99.90
17968;DHT22;9109;48.050;11.696;2023-04-03T11:31:16;3.50;99.90
17968;DHT22;9109;48.050;11.696;2023-04-03T11:34:33;3.50;99.90
17968;DHT22;9109;48.050;11.696;2023-04-03T11:37:39;3.40;99.90
17968;DHT22;9109;48.050;11.696;2023-04-03T11:40:44;3.30;99.90
17968;DHT22;9109;48.050;11.696;2023-04-03T11:43:58;3.40;99.90
17968;DHT22;9109;48.050;11.696;2023-04-03T11:47:02;3.60;99.90
17968;DHT22;9109;48.050;11.696;2023-04-03T11:50:05;3.70;99.90
17968;DHT22;9109;48.050;11.696;2023-04-03T11:53:30;3.60;99.90
17968;DHT22;9109;48.050;11.696;2023-04-03T11:56:32;3.60;99.90
17968;DHT22;9109;48.050;11.696;2023-04-03T11:59:38;3.60;99.90
17968;DHT22;9109;48.050;11.696;2023-04-03T12:02:40;3.70;99.90
17968;DHT22;9109;48.050;11.696;2023-04-03T12:05:42;3.90;99.90
17968;DHT22;9109;48.050;11.696;2023-04-03T12:08:47;4.10;99.90
17968;DHT22;9109;48.050;11.696;2023-04-03T12:11:49;4.10;99.90
17968;DHT22;9109;48.050;11.696;2023-04-03T12:14:53;4.20;99.90
17968;DHT22;9109;48.050;11.696;2023-04-03T12:17:54;4.30;99.90
17968;DHT22;9109;48.050;11.696;2023-04-03T12:20:57;4.20;99.90
17968;DHT22;9109;48.050;11.696;2023-04-03T12:24:15;4.30;99.90
17968;DHT22;9109;48.050;11.696;2023-04-03T12:27:34;4.40;99.90
17968;DHT22;9109;48.050;11.696;2023-04-03T12:30:41;4.40;99.90
17968;DHT22;9109;48.050;11.696;2023-04-03T12:34:01;4.50;99.90
17968;DHT22;9109;48.050;11.696;2023-04-03T12:37:14;4.60;99.90
17968;DHT22;9109;48.050;11.696;2023-04-03T12:40:25;4.60;99.90
17968;DHT22;9109;48.050;11.696;2023-04-03T12:43:39;4.50;99.90
17968;DHT22;9109;48.050;11.696;2023-04-03T12:46:46;4.50;99.90
17968;DHT22;9109;48.050;11.696;2023-04-03T12:49:49;4.50;99.90
17968;DHT22;9109;48.050;11.696;2023-04-03T12:52:56;4.60;99.90
17968;DHT22;9109;48.050;11.696;2023-04-03T12:56:19;4.70;99.90
17968;DHT22;9109;48.050;11.696;2023-04-03T12:59:23;4.80;99.90
17968;DHT22;9109;48.050;11.696;2023-04-03T13:02:28;4.80;99.90
17968;DHT22;9109;48.050;11.696;2023-04-03T13:05:32;5.00;99.90
17968;DHT22;9109;48.050;11.696;2023-04-03T13:08:34;5.10;99.90
17968;DHT22;9109;48.050;11.696;2023-04-03T13:11:39;5.20;99.90
17968;DHT22;9109;48.050;11.696;2023-04-03T13:14:58;5.20;99.90
17968;DHT22;9109;48.050;11.696;2023-04-03T13:32:02;5.20;99.90
17968;DHT22;9109;48.050;11.696;2023-04-03T13:35:34;5.30;99.90
17968;DHT22;9109;48.050;11.696;2023-04-03T13:38:43;5.60;99.90
17968;DHT22;9109;48.050;11.696;2023-04-03T13:41:56;5.60;99.90
17968;DHT22;9109;48.050;11.696;2023-04-03T13:45:24;5.70;99.90
17968;DHT22;9109;48.050;11.696;2023-04-03T13:48:35;5.70;99.90
17968;DHT22;9109;48.050;11.696;2023-04-03T13:51:38;5.70;99.90
17968;DHT22;9109;48.050;11.696;2023-04-03T13:54:40;5.70;99.90
17968;DHT22;9109;48.050;11.696;2023-04-03T13:57:50;6.00;99.90
17968;DHT22;9109;48.050;11.696;2023-04-03T14:00:54;6.20;99.90
17968;DHT22;9109;48.050;11.696;2023-04-03T14:03:59;6.10;99.90
17968;DHT22;9109;48.050;11.696;2023-04-03T14:07:01;5.90;99.90
17968;DHT22;9109;48.050;11.696;2023-04-03T14:10:03;5.60;99.90
17968;DHT22;9109;48.050;11.696;2023-04-03T14:13:05;5.60;99.90
17968;DHT22;9109;48.050;11.696;2023-04-03T14:16:11;5.60;99.90
17968;DHT22;9109;48.050;11.696;2023-04-03T14:19:20;5.30;97.80
17968;DHT22;9109;48.050;11.696;2023-04-03T14:22:25;5.10;95.90
17968;DHT22;9109;48.050;11.696;2023-04-03T14:25:27;4.90;96.60
17968;DHT22;9109;48.050;11.696;2023-04-03T14:28:29;4.90;97.50
17968;DHT22;9109;48.050;11.696;2023-04-03T14:31:32;5.00;96.00
17968;DHT22;9109;48.050;11.696;2023-04-03T14:34:36;5.00;96.60
17968;DHT22;9109;48.050;11.696;2023-04-03T14:37:38;5.10;96.50
17968;DHT22;9109;48.050;11.696;2023-04-03T14:40:40;5.00;95.20
17968;DHT22;9109;48.050;11.696;2023-04-03T14:43:42;5.10;94.40
17968;DHT22;9109;48.050;11.696;2023-04-03T14:46:45;5.00;93.20
17968;DHT22;9109;48.050;11.696;2023-04-03T14:49:48;5.10;93.90
17968;DHT22;9109;48.050;11.696;2023-04-03T14:52:52;5.30;94.80
17968;DHT22;9109;48.050;11.696;2023-04-03T14:55:54;5.40;93.60
17968;DHT22;9109;48.050;11.696;2023-04-03T14:58:58;5.40;92.70
17968;DHT22;9109;48.050;11.696;2023-04-03T15:02:00;5.30;92.30
17968;DHT22;9109;48.050;11.696;2023-04-03T15:05:05;5.40;92.30
17968;DHT22;9109;48.050;11.696;2023-04-03T15:08:23;5.50;92.30
17968;DHT22;9109;48.050;11.696;2023-04-03T15:11:26;5.50;90.40
17968;DHT22;9109;48.050;11.696;2023-04-03T15:14:27;5.50;91.80
17968;DHT22;9109;48.050;11.696;2023-04-03T15:17:29;5.60;92.00
17968;DHT22;9109;48.050;11.696;2023-04-03T15:20:33;5.70;90.10
17968;DHT22;9109;48.050;11.696;2023-04-03T15:23:35;5.60;88.30
17968;DHT22;9109;48.050;11.696;2023-04-03T15:26:37;5.60;90.40
17968;DHT22;9109;48.050;11.696;2023-04-03T15:29:41;5.70;89.60
17968;DHT22;9109;48.050;11.696;2023-04-03T15:32:43;5.70;84.10
17968;DHT22;9109;48.050;11.696;2023-04-03T15:35:46;5.60;84.80
17968;DHT22;9109;48.050;11.696;2023-04-03T15:38:48;5.50;85.70
17968;DHT22;9109;48.050;11.696;2023-04-03T15:41:50;5.30;85.20
17968;DHT22;9109;48.050;11.696;2023-04-03T15:44:52;5.20;87.40
17968;DHT22;9109;48.050;11.696;2023-04-03T15:47:54;5.10;86.50
17968;DHT22;9109;48.050;11.696;2023-04-03T15:50:57;5.10;87.60
17968;DHT22;9109;48.050;11.696;2023-04-03T15:53:59;5.10;87.10
17968;DHT22;9109;48.050;11.696;2023-04-03T15:57:01;5.30;86.00
17968;DHT22;9109;48.050;11.696;2023-04-03T16:00:04;5.30;86.30
17968;DHT22;9109;48.050;11.696;2023-04-03T16:03:10;5.40;89.30
17968;DHT22;9109;48.050;11.696;2023-04-03T16:06:18;5.60;85.20
17968;DHT22;9109;48.050;11.696;2023-04-03T16:09:20;5.60;80.70
17968;DHT22;9109;48.050;11.696;2023-04-03T16:12:22;5.70;82.20
17968;DHT22;9109;48.050;11.696;2023-04-03T16:15:24;5.80;79.40
17968;DHT22;9109;48.050;11.696;2023-04-03T16:18:27;5.70;79.70
17968;DHT22;9109;48.050;11.696;2023-04-03T16:21:31;5.60;76.60
17968;DHT22;9109;48.050;11.696;2023-04-03T16:24:33;5.50;81.80
17968;DHT22;9109;48.050;11.696;2023-04-03T16:27:36;5.40;82.50
17968;DHT22;9109;48.050;11.696;2023-04-03T16:30:39;5.30;82.10
17968;DHT22;9109;48.050;11.696;2023-04-03T16:33:41;5.20;82.90
17968;DHT22;9109;48.050;11.696;2023-04-03T16:36:45;5.10;82.60
17968;DHT22;9109;48.050;11.696;2023-04-03T16:39:47;5.10;81.00
17968;DHT22;9109;48.050;11.696;2023-04-03T16:42:48;4.90;82.00
17968;DHT22;9109;48.050;11.696;2023-04-03T16:45:50;4.90;84.10
17968;DHT22;9109;48.050;11.696;2023-04-03T16:48:52;4.80;81.80
17968;DHT22;9109;48.050;11.696;2023-04-03T16:51:56;4.70;81.70
17968;DHT22;9109;48.050;11.696;2023-04-03T16:54:57;4.70;82.30
17968;DHT22;9109;48.050;11.696;2023-04-03T16:57:59;4.60;80.50
17968;DHT22;9109;48.050;11.696;2023-04-03T17:01:09;4.60;80.50
17968;DHT22;9109;48.050;11.696;2023-04-03T17:04:11;4.60;83.20
17968;DHT22;9109;48.050;11.696;2023-04-03T17:07:14;4.40;83.60
17968;DHT22;9109;48.050;11.696;2023-04-03T17:10:16;4.20;84.40
17968;DHT22;9109;48.050;11.696;2023-04-03T17:13:18;4.20;86.10
17968;DHT22;9109;48.050;11.696;2023-04-03T17:16:20;4.20;86.90
17968;DHT22;9109;48.050;11.696;2023-04-03T17:19:23;4.30;89.00
17968;DHT22;9109;48.050;11.696;2023-04-03T17:22:27;4.30;89.80
17968;DHT22;9109;48.050;11.696;2023-04-03T17:25:29;4.30;89.30
17968;DHT22;9109;48.050;11.696;2023-04-03T17:28:31;4.30;88.40
17968;DHT22;9109;48.050;11.696;2023-04-03T17:31:33;4.20;87.70
17968;DHT22;9109;48.050;11.696;2023-04-03T17:34:35;4.20;88.80
17968;DHT22;9109;48.050;11.696;2023-04-03T17:37:38;4.20;88.40
17968;DHT22;9109;48.050;11.696;2023-04-03T17:40:40;4.10;87.90
17968;DHT22;9109;48.050;11.696;2023-04-03T17:43:44;4.10;87.30
17968;DHT22;9109;48.050;11.696;2023-04-03T17:46:46;4.10;90.00
17968;DHT22;9109;48.050;11.696;2023-04-03T17:49:47;4.10;90.00
17968;DHT22;9109;48.050;11.696;2023-04-03T17:52:52;4.00;88.30
17968;DHT22;9109;48.050;11.696;2023-04-03T17:55:54;4.10;90.20
17968;DHT22;9109;48.050;11.696;2023-04-03T17:58:56;4.10;90.10
17968;DHT22;9109;48.050;11.696;2023-04-03T18:01:58;4.00;89.70
17968;DHT22;9109;48.050;11.696;2023-04-03T18:05:00;4.00;89.10
17968;DHT22;9109;48.050;11.696;2023-04-03T18:08:04;4.00;88.10
17968;DHT22;9109;48.050;11.696;2023-04-03T18:11:06;4.00;88.40
17968;DHT22;9109;48.050;11.696;2023-04-03T18:14:08;4.00;86.90
17968;DHT22;9109;48.050;11.696;2023-04-03T18:17:11;3.90;87.90
17968;DHT22;9109;48.050;11.696;2023-04-03T18:20:13;3.90;88.20
17968;DHT22;9109;48.050;11.696;2023-04-03T18:23:17;4.00;89.10
17968;DHT22;9109;48.050;11.696;2023-04-03T18:26:19;4.00;90.10
17968;DHT22;9109;48.050;11.696;2023-04-03T18:29:22;3.90;89.10
17968;DHT22;9109;48.050;11.696;2023-04-03T18:32:25;3.80;88.90
17968;DHT22;9109;48.050;11.696;2023-04-03T18:35:27;3.80;89.00
17968;DHT22;9109;48.050;11.696;2023-04-03T18:38:30;3.70;88.80
17968;DHT22;9109;48.050;11.696;2023-04-03T18:41:34;3.70;89.40
17968;DHT22;9109;48.050;11.696;2023-04-03T18:44:38;3.60;88.90
17968;DHT22;9109;48.050;11.696;2023-04-03T18:47:41;3.60;90.30
17968;DHT22;9109;48.050;11.696;2023-04-03T18:50:43;3.60;90.30
17968;DHT22;9109;48.050;11.696;2023-04-03T18:53:47;3.70;90.00
17968;DHT22;9109;48.050;11.696;2023-04-03T18:56:49;3.60;88.60
17968;DHT22;9109;48.050;11.696;2023-04-03T18:59:51;3.60;90.20
17968;DHT22;9109;48.050;11.696;2023-04-03T19:02:53;3.70;89.60
17968;DHT22;9109;48.050;11.696;2023-04-03T19:05:55;3.60;89.90
17968;DHT22;9109;48.050;11.696;2023-04-03T19:09:02;3.50;89.50
17968;DHT22;9109;48.050;11.696;2023-04-03T19:12:05;3.40;90.20
17968;DHT22;9109;48.050;11.696;2023-04-03T19:15:07;3.40;89.80
17968;DHT22;9109;48.050;11.696;2023-04-03T19:18:09;3.40;90.30
17968;DHT22;9109;48.050;11.696;2023-04-03T19:21:11;3.40;90.00
17968;DHT22;9109;48.050;11.696;2023-04-03T19:24:15;3.40;89.40
17968;DHT22;9109;48.050;11.696;2023-04-03T19:27:18;3.30;90.00
17968;DHT22;9109;48.050;11.696;2023-04-03T19:30:20;3.20;90.40
17968;DHT22;9109;48.050;11.696;2023-04-03T19:33:22;3.10;91.00
17968;DHT22;9109;48.050;11.696;2023-04-03T19:36:24;3.10;91.50
17968;DHT22;9109;48.050;11.696;2023-04-03T19:39:27;3.10;91.20
17968;DHT22;9109;48.050;11.696;2023-04-03T19:42:31;3.00;91.80
17968;DHT22;9109;48.050;11.696;2023-04-03T19:45:36;2.80;90.20
17968;DHT22;9109;48.050;11.696;2023-04-03T19:48:38;2.70;91.10
17968;DHT22;9109;48.050;11.696;2023-04-03T19:51:40;2.70;91.80
17968;DHT22;9109;48.050;11.696;2023-04-03T19:54:43;2.70;90.20
17968;DHT22;9109;48.050;11.696;2023-04-03T19:57:45;2.50;90.10
17968;DHT22;9109;48.050;11.696;2023-04-03T20:00:47;2.40;90.40
17968;DHT22;9109;48.050;11.696;2023-04-03T20:03:49;2.50;90.90
17968;DHT22;9109;48.050;11.696;2023-04-03T20:06:51;2.40;90.30
17968;DHT22;9109;48.050;11.696;2023-04-03T20:09:55;2.30;89.50
17968;DHT22;9109;48.050;11.696;2023-04-03T20:12:57;2.40;91.00
17968;DHT22;9109;48.050;11.696;2023-04-03T20:16:01;2.50;91.10
17968;DHT22;9109;48.050;11.696;2023-04-03T20:19:04;2.50;91.10
17968;DHT22;9109;48.050;11.696;2023-04-03T20:22:06;2.50;92.10
17968;DHT22;9109;48.050;11.696;2023-04-03T20:25:12;2.50;91.70
17968;DHT22;9109;48.050;11.696;2023-04-03T20:28:15;2.50;91.90
17968;DHT22;9109;48.050;11.696;2023-04-03T20:31:18;2.50;92.50
17968;DHT22;9109;48.050;11.696;2023-04-03T20:34:20;2.60;92.40
17968;DHT22;9109;48.050;11.696;2023-04-03T20:37:22;2.60;92.00
17968;DHT22;9109;48.050;11.696;2023-04-03T20:40:26;2.70;91.60
17968;DHT22;9109;48.050;11.696;2023-04-03T20:43:28;2.60;92.20
17968;DHT22;9109;48.050;11.696;2023-04-03T20:46:31;2.70;92.50
17968;DHT22;9109;48.050;11.696;2023-04-03T20:49:33;2.70;92.30
17968;DHT22;9109;48.050;11.696;2023-04-03T20:52:35;2.60;91.80
17968;DHT22;9109;48.050;11.696;2023-04-03T20:55:38;2.70;92.30
17968;DHT22;9109;48.050;11.696;2023-04-03T20:58:41;2.80;93.70
17968;DHT22;9109;48.050;11.696;2023-04-03T21:01:46;2.80;92.70
17968;DHT22;9109;48.050;11.696;2023-04-03T21:04:51;2.80;92.60
17968;DHT22;9109;48.050;11.696;2023-04-03T21:19:06;2.70;92.80
17968;DHT22;9109;48.050;11.696;2023-04-03T21:22:09;2.70;92.90
17968;DHT22;9109;48.050;11.696;2023-04-03T21:25:11;2.60;92.60
17968;DHT22;9109;48.050;11.696;2023-04-03T21:28:13;2.60;93.20
17968;DHT22;9109;48.050;11.696;2023-04-03T21:31:15;2.60;93.90
17968;DHT22;9109;48.050;11.696;2023-04-03T21:34:20;2.70;94.70
17968;DHT22;9109;48.050;11.696;2023-04-03T21:37:23;2.60;94.30
17968;DHT22;9109;48.050;11.696;2023-04-03T21:40:25;2.50;94.10
17968;DHT22;9109;48.050;11.696;2023-04-03T21:43:27;2.50;94.40
17968;DHT22;9109;48.050;11.696;2023-04-03T21:46:29;2.50;94.60
17968;DHT22;9109;48.050;11.696;2023-04-03T21:49:32;2.40;93.40
17968;DHT22;9109;48.050;11.696;2023-04-03T21:52:35;2.30;93.30
17968;DHT22;9109;48.050;11.696;2023-04-03T21:55:36;2.30;93.60
17968;DHT22;9109;48.050;11.696;2023-04-03T21:58:39;2.20;93.30
17968;DHT22;9109;48.050;11.696;2023-04-03T22:01:41;2.20;93.20
17968;DHT22;9109;48.050;11.696;2023-04-03T22:04:44;2.00;92.70
17968;DHT22;9109;48.050;11.696;2023-04-03T22:07:46;1.90;92.80
17968;DHT22;9109;48.050;11.696;2023-04-03T22:10:48;1.90;93.70
17968;DHT22;9109;48.050;11.696;2023-04-03T22:13:52;1.80;92.60
17968;DHT22;9109;48.050;11.696;2023-04-03T22:16:53;1.90;94.00
17968;DHT22;9109;48.050;11.696;2023-04-03T22:19:58;1.80;93.70
17968;DHT22;9109;48.050;11.696;2023-04-03T22:23:00;1.80;94.00
17968;DHT22;9109;48.050;11.696;2023-04-03T22:26:03;1.80;93.40
17968;DHT22;9109;48.050;11.696;2023-04-03T22:29:05;1.80;94.00
17968;DHT22;9109;48.050;11.696;2023-04-03T22:32:07;1.80;93.70
17968;DHT22;9109;48.050;11.696;2023-04-03T22:35:10;1.80;94.00
17968;DHT22;9109;48.050;11.696;2023-04-03T22:38:12;1.90;94.60
17968;DHT22;9109;48.050;11.696;2023-04-03T22:41:14;1.90;94.80
17968;DHT22;9109;48.050;11.696;2023-04-03T22:44:16;1.80;93.20
17968;DHT22;9109;48.050;11.696;2023-04-03T22:47:18;1.70;93.40
17968;DHT22;9109;48.050;11.696;2023-04-03T22:50:22;1.70;94.20
17968;DHT22;9109;48.050;11.696;2023-04-03T22:53:23;1.60;93.90
17968;DHT22;9109;48.050;11.696;2023-04-03T22:56:25;1.70;94.40
17968;DHT22;9109;48.050;11.696;2023-04-03T22:59:27;1.70;93.80
